createdAt,value
2023-04-13T00:01:15.871Z,99300.47
2023-04-13T00:03:43.088Z,99279.75
2023-04-13T00:06:11.236Z,99294.38
2023-04-13T00:08:38.818Z,99292.28
2023-04-13T00:11:07.731Z,99294.06
2023-04-13T00:13:40.972Z,99298.00
2023-04-13T00:16:10.952Z,99307.34
2023-04-13T00:18:38.222Z,99289.63
2023-04-13T00:21:05.961Z,99278.81
2023-04-13T00:23:35.990Z,99286.88
2023-04-13T00:26:03.132Z,99303.72
2023-04-13T00:28:30.339Z,99289.81
2023-04-13T00:30:57.662Z,99290.28
2023-04-13T00:33:27.055Z,99292.25
2023-04-13T00:35:54.105Z,99284.22
2023-04-13T00:38:23.987Z,99282.69
2023-04-13T00:40:51.063Z,99291.38
2023-04-13T00:43:18.181Z,99294.47
2023-04-13T00:45:45.388Z,99284.22
2023-04-13T00:48:13.519Z,99300.13
2023-04-13T00:50:42.445Z,99311.22
2023-04-13T00:53:13.250Z,99305.34
2023-04-13T00:55:42.700Z,99313.16
2023-04-13T00:58:10.576Z,99328.28
2023-04-13T01:00:42.730Z,99335.16
2023-04-13T01:03:10.254Z,99334.50
2023-04-13T01:05:54.049Z,99341.16
2023-04-13T01:09:08.839Z,99345.13
2023-04-13T01:12:08.266Z,99351.81
2023-04-13T01:14:49.233Z,99361.75
2023-04-13T01:17:23.940Z,99377.00
2023-04-13T01:20:11.995Z,99378.16
2023-04-13T01:23:01.412Z,99375.47
2023-04-13T01:25:38.254Z,99383.53
2023-04-13T01:28:13.538Z,99376.78
2023-04-13T01:30:42.468Z,99355.78
2023-04-13T01:33:11.771Z,99370.63
2023-04-13T01:35:39.743Z,99386.69
2023-04-13T01:38:08.659Z,99387.34
2023-04-13T01:40:40.924Z,99389.25
2023-04-13T01:43:08.766Z,99413.50
2023-04-13T01:45:56.876Z,99424.22
2023-04-13T01:48:49.399Z,99414.38
2023-04-13T01:51:32.272Z,99426.38
2023-04-13T01:54:17.864Z,99415.78
2023-04-13T01:56:45.576Z,99431.06
2023-04-13T01:59:13.162Z,99449.50
2023-04-13T02:01:41.048Z,99448.34
2023-04-13T02:04:08.379Z,99447.88
2023-04-13T02:06:40.899Z,99445.47
2023-04-13T02:09:08.289Z,99442.34
2023-04-13T02:11:36.653Z,99451.25
2023-04-13T02:14:04.823Z,99446.81
2023-04-13T02:16:32.185Z,99454.78
2023-04-13T02:19:00.065Z,99452.78
2023-04-13T02:21:27.288Z,99458.06
2023-04-13T02:23:54.490Z,99459.78
2023-04-13T02:26:21.552Z,99456.56
2023-04-13T02:28:51.254Z,99458.66
2023-04-13T02:31:20.030Z,99474.69
2023-04-13T02:33:47.675Z,99466.00
2023-04-13T02:36:17.539Z,99465.69
2023-04-13T02:38:45.314Z,99463.31
2023-04-13T02:41:12.566Z,99462.28
2023-04-13T02:43:39.707Z,99451.84
2023-04-13T02:46:07.222Z,99450.72
2023-04-13T02:48:34.316Z,99471.25
2023-04-13T02:51:02.334Z,99478.94
2023-04-13T02:53:29.450Z,99479.41
2023-04-13T02:55:56.651Z,99475.94
2023-04-13T02:58:24.030Z,99469.53
2023-04-13T03:00:51.353Z,99456.09
2023-04-13T03:03:19.081Z,99458.44
2023-04-13T03:05:47.179Z,99470.06
2023-04-13T03:08:14.447Z,99468.31
2023-04-13T03:10:41.549Z,99474.09
2023-04-13T03:13:08.761Z,99472.81
2023-04-13T03:15:37.334Z,99473.06
2023-04-13T03:18:04.554Z,99480.88
2023-04-13T03:20:31.830Z,99487.19
2023-04-13T03:22:59.909Z,99491.91
2023-04-13T03:25:28.326Z,99497.38
2023-04-13T03:27:56.791Z,99501.97
2023-04-13T03:30:24.018Z,99508.44
2023-04-13T03:32:52.313Z,99514.94
2023-04-13T03:35:19.462Z,99516.84
2023-04-13T03:37:46.630Z,99520.78
2023-04-13T03:40:14.277Z,99521.00
2023-04-13T03:42:41.456Z,99518.69
2023-04-13T03:45:10.525Z,99524.31
2023-04-13T03:47:38.972Z,99519.91
2023-04-13T03:50:10.082Z,99523.88
2023-04-13T03:52:37.228Z,99522.56
2023-04-13T03:55:04.941Z,99521.66
2023-04-13T03:57:32.108Z,99521.78
2023-04-13T03:59:59.204Z,99524.22
2023-04-13T04:02:26.482Z,99521.75
2023-04-13T04:04:53.769Z,99520.69
2023-04-13T04:07:23.268Z,99529.00
2023-04-13T04:10:18.057Z,99539.72
2023-04-13T04:12:45.701Z,99539.00
2023-04-13T04:15:12.946Z,99539.50
2023-04-13T04:17:40.215Z,99537.06
2023-04-13T04:20:08.748Z,99532.63
2023-04-13T04:22:36.553Z,99535.38
2023-04-13T04:25:04.489Z,99549.56
2023-04-13T04:27:37.801Z,99554.25
2023-04-13T04:30:06.818Z,99555.59
2023-04-13T04:32:34.159Z,99564.72
2023-04-13T04:35:04.029Z,99564.00
2023-04-13T04:37:37.405Z,99559.72
2023-04-13T04:40:09.657Z,99568.81
2023-04-13T04:42:39.653Z,99575.50
2023-04-13T04:45:08.277Z,99576.09
2023-04-13T04:47:42.018Z,99571.38
2023-04-13T04:50:14.372Z,99586.88
2023-04-13T04:52:42.180Z,99582.53
2023-04-13T04:55:10.184Z,99585.75
2023-04-13T04:57:37.814Z,99571.44
2023-04-13T05:00:15.411Z,99573.63
2023-04-13T05:02:44.235Z,99568.00
2023-04-13T05:05:12.075Z,99566.00
2023-04-13T05:07:39.387Z,99573.06
2023-04-13T05:10:12.814Z,99571.69
2023-04-13T05:12:39.918Z,99581.88
2023-04-13T05:15:08.985Z,99579.66
2023-04-13T05:17:36.503Z,99581.03
2023-04-13T05:20:07.852Z,99576.91
2023-04-13T05:22:35.099Z,99570.75
2023-04-13T05:25:02.465Z,99583.25
2023-04-13T05:27:29.641Z,99600.63
2023-04-13T05:29:57.529Z,99605.88
2023-04-13T05:32:24.669Z,99597.66
2023-04-13T05:34:51.726Z,99606.41
2023-04-13T05:37:21.403Z,99611.91
2023-04-13T05:39:48.513Z,99607.19
2023-04-13T05:42:16.403Z,99605.22
2023-04-13T05:44:43.485Z,99604.09
2023-04-13T05:47:10.556Z,99613.16
2023-04-13T05:49:37.676Z,99610.63
2023-04-13T05:52:07.758Z,99628.31
2023-04-13T05:54:36.348Z,99628.09
2023-04-13T05:57:03.736Z,99624.25
2023-04-13T05:59:31.106Z,99616.47
2023-04-13T06:02:00.100Z,99626.00
2023-04-13T06:04:27.633Z,99629.09
2023-04-13T06:06:55.893Z,99645.66
2023-04-13T06:09:27.240Z,99649.22
2023-04-13T06:11:54.470Z,99649.09
2023-04-13T06:14:22.295Z,99653.47
2023-04-13T06:16:49.376Z,99661.59
2023-04-13T06:19:17.358Z,99665.00
2023-04-13T06:21:44.590Z,99667.75
2023-04-13T06:24:11.711Z,99666.34
2023-04-13T06:26:39.267Z,99669.19
2023-04-13T06:29:06.463Z,99680.03
2023-04-13T06:31:33.762Z,99674.06
2023-04-13T06:34:02.464Z,99670.94
2023-04-13T06:36:29.732Z,99677.63
2023-04-13T06:38:57.145Z,99688.69
2023-04-13T06:41:24.587Z,99690.91
2023-04-13T06:43:52.093Z,99696.34
2023-04-13T06:46:20.032Z,99703.59
2023-04-13T06:48:49.146Z,99702.91
2023-04-13T06:51:16.486Z,99710.75
2023-04-13T06:53:43.519Z,99720.34
2023-04-13T06:56:13.169Z,99720.44
2023-04-13T06:58:42.905Z,99724.28
2023-04-13T07:01:12.457Z,99730.00
2023-04-13T07:03:42.183Z,99733.69
2023-04-13T07:06:09.755Z,99735.25
2023-04-13T07:08:36.871Z,99727.66
2023-04-13T07:11:03.996Z,99736.81
2023-04-13T07:13:31.036Z,99730.91
2023-04-13T07:15:58.079Z,99732.19
2023-04-13T07:18:26.375Z,99734.44
2023-04-13T07:20:53.445Z,99733.00
2023-04-13T07:23:20.542Z,99727.66
2023-04-13T07:25:47.619Z,99731.22
2023-04-13T07:28:14.727Z,99718.50
2023-04-13T07:30:45.786Z,99725.97
2023-04-13T07:33:13.297Z,99733.00
2023-04-13T07:35:40.507Z,99728.59
2023-04-13T07:38:07.923Z,99727.06
2023-04-13T07:40:38.135Z,99732.78
2023-04-13T07:43:05.237Z,99734.09
2023-04-13T07:45:32.738Z,99733.47
2023-04-13T07:47:59.872Z,99737.47
2023-04-13T07:50:27.441Z,99753.78
2023-04-13T07:52:57.130Z,99757.41
2023-04-13T07:55:27.589Z,99754.03
2023-04-13T07:57:55.509Z,99745.13
2023-04-13T08:00:22.997Z,99739.88
2023-04-13T08:02:50.286Z,99744.50
2023-04-13T08:05:17.961Z,99755.19
2023-04-13T08:07:46.816Z,99748.44
2023-04-13T08:10:13.917Z,99756.34
2023-04-13T08:12:43.308Z,99756.28
2023-04-13T08:15:17.993Z,99752.22
2023-04-13T08:17:45.332Z,99754.00
2023-04-13T08:20:13.737Z,99759.94
2023-04-13T08:22:40.897Z,99756.16
2023-04-13T08:25:08.255Z,99769.44
2023-04-13T08:27:35.367Z,99772.41
2023-04-13T08:30:03.652Z,99775.34
2023-04-13T08:32:30.958Z,99771.06
2023-04-13T08:34:58.456Z,99781.91
2023-04-13T08:37:28.084Z,99789.81
2023-04-13T08:39:59.566Z,99789.19
2023-04-13T08:42:28.965Z,99784.47
2023-04-13T08:45:01.755Z,99787.47
2023-04-13T08:47:29.368Z,99791.09
2023-04-13T08:50:01.925Z,99789.78
2023-04-13T08:52:29.606Z,99790.28
2023-04-13T08:55:02.280Z,99789.03
2023-04-13T08:57:31.157Z,99787.50
2023-04-13T09:00:01.122Z,99792.31
2023-04-13T09:02:37.576Z,99798.28
2023-04-13T09:05:16.272Z,99787.22
2023-04-13T09:07:53.598Z,99797.94
2023-04-13T09:10:26.223Z,99787.94
2023-04-13T09:12:53.469Z,99798.50
2023-04-13T09:15:21.314Z,99796.16
2023-04-13T09:17:50.580Z,99789.34
2023-04-13T09:20:23.904Z,99792.75
2023-04-13T09:22:53.985Z,99797.50
2023-04-13T09:25:30.413Z,99794.91
2023-04-13T09:27:59.246Z,99796.25
2023-04-13T09:30:27.579Z,99796.63
2023-04-13T09:33:10.739Z,99798.81
2023-04-13T09:35:38.888Z,99802.72
2023-04-13T09:38:07.310Z,99803.97
2023-04-13T09:40:38.171Z,99808.53
2023-04-13T09:47:14.637Z,99810.88
2023-04-13T09:49:43.769Z,99809.53
2023-04-13T09:52:24.822Z,99811.00
2023-04-13T09:54:58.769Z,99816.28
2023-04-13T09:57:32.887Z,99810.72
2023-04-13T10:00:16.066Z,99816.09
2023-04-13T10:02:45.836Z,99815.47
2023-04-13T10:05:13.980Z,99814.09
2023-04-13T10:07:48.763Z,99803.53
2023-04-13T10:10:16.943Z,99821.63
2023-04-13T10:12:53.400Z,99823.03
2023-04-13T10:16:06.576Z,99824.47
2023-04-13T10:19:01.857Z,99817.81
2023-04-13T10:21:39.919Z,99827.56
2023-04-13T10:24:14.358Z,99827.28
2023-04-13T10:26:46.654Z,99819.69
2023-04-13T10:29:14.821Z,99823.94
2023-04-13T10:31:47.989Z,99828.13
2023-04-13T10:34:31.847Z,99821.59
2023-04-13T10:37:03.695Z,99835.00
2023-04-13T10:39:34.465Z,99822.09
2023-04-13T10:42:09.566Z,99833.41
2023-04-13T10:44:51.401Z,99834.63
2023-04-13T10:47:21.723Z,99829.38
2023-04-13T10:49:51.254Z,99832.28
2023-04-13T10:52:18.449Z,99834.09
2023-04-13T10:54:50.258Z,99838.91
2023-04-13T10:57:17.671Z,99831.00
2023-04-13T10:59:58.797Z,99851.56
2023-04-13T11:02:32.347Z,99840.03
2023-04-13T11:05:00.898Z,99852.50
2023-04-13T11:07:28.691Z,99845.44
2023-04-13T11:12:31.707Z,99847.44
2023-04-13T11:15:00.897Z,99849.72
2023-04-13T11:17:28.249Z,99855.88
2023-04-13T11:20:02.453Z,99858.75
2023-04-13T11:22:36.377Z,99869.91
2023-04-13T11:25:09.095Z,99859.34
2023-04-13T11:27:37.703Z,99860.09
2023-04-13T11:30:10.911Z,99862.88
2023-04-13T11:32:43.516Z,99857.09
2023-04-13T11:35:14.744Z,99856.88
2023-04-13T11:37:48.649Z,99850.41
2023-04-13T11:40:27.759Z,99859.59
2023-04-13T11:42:58.262Z,99860.44
2023-04-13T11:45:31.929Z,99858.38
2023-04-13T11:47:59.764Z,99861.09
2023-04-13T11:50:27.909Z,99856.25
2023-04-13T11:52:56.831Z,99861.06
2023-04-13T11:55:25.537Z,99863.81
2023-04-13T11:57:55.636Z,99859.38
2023-04-13T12:00:28.067Z,99861.63
2023-04-13T12:05:42.988Z,99868.50
2023-04-13T12:08:24.580Z,99867.56
2023-04-13T12:14:06.448Z,99871.03
2023-04-13T12:17:03.219Z,99873.50
2023-04-13T12:19:26.654Z,99874.25
2023-04-13T12:21:56.694Z,99876.00
2023-04-13T12:24:40.222Z,99876.47
2023-04-13T12:29:39.406Z,99883.88
2023-04-13T12:32:14.887Z,99877.38
2023-04-13T12:34:51.435Z,99880.66
2023-04-13T12:37:18.531Z,99869.13
2023-04-13T12:39:45.607Z,99874.94
2023-04-13T12:42:48.250Z,99868.50
2023-04-13T12:45:16.834Z,99874.53
2023-04-13T12:47:47.136Z,99881.88
2023-04-13T12:50:14.973Z,99876.19
2023-04-13T12:52:43.456Z,99875.13
2023-04-13T12:55:11.456Z,99869.22
2023-04-13T12:57:39.908Z,99878.25
2023-04-13T13:00:10.860Z,99866.03
2023-04-13T13:02:42.131Z,99874.81
2023-04-13T13:05:09.684Z,99873.41
2023-04-13T13:07:37.047Z,99875.69
2023-04-13T13:10:09.630Z,99864.00
2023-04-13T13:12:45.656Z,99869.84
2023-04-13T13:15:17.507Z,99872.66
2023-04-13T13:17:45.410Z,99872.88
2023-04-13T13:20:14.629Z,99870.41
2023-04-13T13:22:43.462Z,99871.31
2023-04-13T13:25:10.972Z,99869.28
2023-04-13T13:28:10.373Z,99871.41
2023-04-13T13:30:29.048Z,99874.59
2023-04-13T13:32:56.584Z,99871.44
2023-04-13T13:35:23.955Z,99865.09
2023-04-13T13:37:51.348Z,99876.25
2023-04-13T13:40:18.675Z,99871.63
2023-04-13T13:42:52.093Z,99871.03
2023-04-13T13:45:25.545Z,99871.22
2023-04-13T13:47:55.253Z,99882.13
2023-04-13T13:50:22.541Z,99880.88
2023-04-13T13:53:02.166Z,99881.72
2023-04-13T13:55:31.727Z,99885.31
2023-04-13T13:57:59.301Z,99885.72
2023-04-13T14:00:27.846Z,99878.00
2023-04-13T14:02:55.105Z,99877.94
2023-04-13T14:05:24.060Z,99874.25
2023-04-13T14:07:51.701Z,99877.97
2023-04-13T14:10:18.987Z,99880.22
2023-04-13T14:12:49.587Z,99882.09
2023-04-13T14:15:17.564Z,99885.38
2023-04-13T14:17:52.832Z,99890.69
2023-04-13T14:20:29.619Z,99893.91
2023-04-13T14:22:58.140Z,99900.44
2023-04-13T14:25:25.451Z,99897.97
2023-04-13T14:27:53.052Z,99896.78
2023-04-13T14:30:23.674Z,99888.56
2023-04-13T14:32:52.260Z,99886.91
2023-04-13T14:35:22.761Z,99892.22
2023-04-13T14:37:50.064Z,99889.00
2023-04-13T14:40:21.027Z,99886.28
2023-04-13T14:42:50.895Z,99902.28
2023-04-13T14:45:19.773Z,99907.81
2023-04-13T14:47:47.188Z,99911.06
2023-04-13T14:50:15.447Z,99912.91
2023-04-13T14:52:46.746Z,99904.47
2023-04-13T14:55:14.943Z,99898.09
2023-04-13T14:57:42.221Z,99901.41
2023-04-13T15:00:26.609Z,99894.66
2023-04-13T15:02:54.806Z,99903.44
2023-04-13T15:05:22.275Z,99900.72
2023-04-13T15:07:50.727Z,99913.53
2023-04-13T15:10:19.169Z,99917.13
2023-04-13T15:12:48.076Z,99914.91
2023-04-13T15:15:16.852Z,99910.28
2023-04-13T15:17:44.182Z,99914.66
2023-04-13T15:20:15.403Z,99917.81
2023-04-13T15:22:42.459Z,99922.41
2023-04-13T15:25:10.082Z,99923.56
2023-04-13T15:27:37.235Z,99923.94
2023-04-13T15:30:05.072Z,99933.97
2023-04-13T15:32:35.170Z,99940.94
2023-04-13T15:35:04.251Z,99944.28
2023-04-13T15:37:31.427Z,99939.91
2023-04-13T15:39:58.559Z,99944.50
2023-04-13T15:42:26.186Z,99947.53
2023-04-13T15:44:54.737Z,99952.19
2023-04-13T15:47:22.702Z,99942.28
2023-04-13T15:49:49.961Z,99948.34
2023-04-13T15:52:17.202Z,99947.56
2023-04-13T15:54:44.282Z,99950.19
2023-04-13T15:57:11.583Z,99952.81
2023-04-13T15:59:38.742Z,99957.59
2023-04-13T16:02:06.189Z,99954.00
2023-04-13T16:04:33.513Z,99958.13
2023-04-13T16:07:12.756Z,99973.75
2023-04-13T16:09:51.222Z,99977.03
2023-04-13T16:12:18.597Z,99984.88
2023-04-13T16:14:46.012Z,99986.78
2023-04-13T16:17:16.987Z,99981.97
2023-04-13T16:19:50.610Z,99971.75
2023-04-13T16:22:17.899Z,99979.94
2023-04-13T16:24:44.976Z,99973.88
2023-04-13T16:27:12.087Z,99979.09
2023-04-13T16:29:41.649Z,99973.31
2023-04-13T16:32:08.967Z,99981.31
2023-04-13T16:34:36.169Z,99985.19
2023-04-13T16:37:03.388Z,99987.25
2023-04-13T16:39:30.464Z,99991.66
2023-04-13T16:41:57.541Z,99998.59
2023-04-13T16:44:24.600Z,99998.53
2023-04-13T16:46:51.713Z,99999.44
2023-04-13T16:49:19.142Z,99999.53
2023-04-13T16:51:46.266Z,100006.94
2023-04-13T16:54:13.926Z,100006.22
2023-04-13T16:56:41.192Z,100010.50
2023-04-13T16:59:08.247Z,100013.38
2023-04-13T17:01:37.153Z,100009.53
2023-04-13T17:04:05.968Z,100008.28
2023-04-13T17:06:37.981Z,100017.28
2023-04-13T17:09:06.167Z,100019.28
2023-04-13T17:11:33.424Z,100027.47
2023-04-13T17:14:00.958Z,100032.56
2023-04-13T17:16:29.419Z,100039.06
2023-04-13T17:18:57.239Z,100043.84
2023-04-13T17:21:24.641Z,100040.88
2023-04-13T17:23:51.724Z,100039.75
2023-04-13T17:26:18.990Z,100040.00
2023-04-13T17:28:46.494Z,100042.28
2023-04-13T17:31:14.393Z,100047.34
2023-04-13T17:33:41.536Z,100042.84
2023-04-13T17:36:08.673Z,100049.94
2023-04-13T17:38:35.840Z,100048.72
2023-04-13T17:41:03.029Z,100047.44
2023-04-13T17:43:30.158Z,100047.34
2023-04-13T17:45:57.298Z,100044.47
2023-04-13T17:48:24.508Z,100048.25
2023-04-13T17:50:51.621Z,100042.41
2023-04-13T17:53:20.808Z,100051.84
2023-04-13T17:55:47.904Z,100053.56
2023-04-13T17:58:15.040Z,100057.69
2023-04-13T18:00:42.256Z,100053.50
2023-04-13T18:03:10.836Z,100060.56
2023-04-13T18:05:44.575Z,100067.41
2023-04-13T18:08:11.716Z,100058.69
2023-04-13T18:10:38.777Z,100059.75
2023-04-13T18:13:05.832Z,100055.97
2023-04-13T18:15:32.937Z,100057.63
2023-04-13T18:18:00.031Z,100058.47
2023-04-13T18:20:27.089Z,100064.66
2023-04-13T18:22:54.160Z,100068.31
2023-04-13T18:25:21.364Z,100073.16
2023-04-13T18:27:50.866Z,100071.56
2023-04-13T18:30:19.073Z,100073.81
2023-04-13T18:32:46.849Z,100070.59
2023-04-13T18:35:14.134Z,100075.63
2023-04-13T18:37:41.237Z,100083.09
2023-04-13T18:40:10.371Z,100092.06
2023-04-13T18:42:40.534Z,100094.66
2023-04-13T18:45:08.484Z,100096.50
2023-04-13T18:47:35.606Z,100104.59
2023-04-13T18:50:02.915Z,100102.66
2023-04-13T18:52:30.031Z,100108.88
2023-04-13T18:54:57.092Z,100102.66
2023-04-13T18:57:24.230Z,100110.69
2023-04-13T18:59:51.599Z,100115.34
2023-04-13T19:02:18.793Z,100120.16
2023-04-13T19:04:46.040Z,100122.75
2023-04-13T19:07:13.139Z,100136.97
2023-04-13T19:09:40.436Z,100143.22
2023-04-13T19:12:08.098Z,100149.53
2023-04-13T19:14:35.213Z,100154.88
2023-04-13T19:17:02.350Z,100159.44
2023-04-13T19:19:29.517Z,100166.44
2023-04-13T19:21:56.641Z,100180.50
2023-04-13T19:24:24.305Z,100194.00
2023-04-13T19:26:51.449Z,100199.09
2023-04-13T19:29:20.918Z,100194.97
2023-04-13T19:31:49.709Z,100190.38
2023-04-13T19:34:16.878Z,100189.72
2023-04-13T19:36:44.360Z,100194.22
2023-04-13T19:39:11.485Z,100196.72
2023-04-13T19:41:41.279Z,100203.22
2023-04-13T19:44:08.971Z,100201.50
2023-04-13T19:46:37.012Z,100209.97
2023-04-13T19:49:04.264Z,100209.91
2023-04-13T19:51:32.752Z,100214.00
2023-04-13T19:54:01.911Z,100215.22
2023-04-13T19:56:36.324Z,100208.50
2023-04-13T19:59:07.005Z,100224.72
2023-04-13T20:01:34.697Z,100225.00
2023-04-13T20:04:05.235Z,100226.41
2023-04-13T20:06:33.303Z,100227.38
2023-04-13T20:09:14.354Z,100220.72
2023-04-13T20:11:41.788Z,100226.66
2023-04-13T20:14:11.447Z,100222.94
2023-04-13T20:16:38.806Z,100225.47
2023-04-13T20:19:06.917Z,100221.63
2023-04-13T20:21:34.288Z,100211.28
2023-04-13T20:24:03.097Z,100215.22
2023-04-13T20:26:31.525Z,100210.22
2023-04-13T20:29:02.249Z,100203.38
2023-04-13T20:31:32.152Z,100219.19
2023-04-13T20:33:59.518Z,100217.03
2023-04-13T20:36:26.984Z,100214.56
2023-04-13T20:39:00.126Z,100214.03
2023-04-13T20:41:32.280Z,100199.19
2023-04-13T20:44:00.485Z,100197.31
2023-04-13T20:46:34.734Z,100192.63
2023-04-13T20:49:05.619Z,100194.16
2023-04-13T20:51:33.627Z,100197.00
2023-04-13T20:54:02.434Z,100193.44
2023-04-13T20:56:33.173Z,100195.63
2023-04-13T20:59:00.847Z,100185.38
2023-04-13T21:01:30.089Z,100186.50
2023-04-13T21:03:57.323Z,100178.41
2023-04-13T21:06:24.623Z,100175.69
2023-04-13T21:08:52.835Z,100169.53
2023-04-13T21:11:21.219Z,100170.94
2023-04-13T21:13:48.344Z,100167.06
2023-04-13T21:16:15.461Z,100178.97
2023-04-13T21:18:42.646Z,100178.53
2023-04-13T21:21:09.787Z,100176.66
2023-04-13T21:23:37.457Z,100166.31
2023-04-13T21:26:05.604Z,100178.41
2023-04-13T21:28:32.788Z,100179.88
2023-04-13T21:31:02.531Z,100174.88
2023-04-13T21:33:29.605Z,100171.56
2023-04-13T21:35:56.701Z,100173.03
2023-04-13T21:38:24.005Z,100178.31
2023-04-13T21:40:51.341Z,100167.06
2023-04-13T21:43:18.499Z,100162.13
2023-04-13T21:45:45.572Z,100158.59
2023-04-13T21:48:12.872Z,100155.59
2023-04-13T21:50:40.423Z,100155.50
2023-04-13T21:53:07.491Z,100167.88
2023-04-13T21:55:37.236Z,100162.66
2023-04-13T21:58:04.304Z,100164.25
2023-04-13T22:00:31.380Z,100158.22
2023-04-13T22:02:58.506Z,100159.31
2023-04-13T22:05:25.661Z,100163.50
2023-04-13T22:07:52.718Z,100167.28
2023-04-13T22:10:19.926Z,100160.56
2023-04-13T22:12:47.117Z,100170.81
2023-04-13T22:15:14.395Z,100176.50
2023-04-13T22:17:41.735Z,100176.69
2023-04-13T22:20:09.710Z,100185.06
2023-04-13T22:22:36.988Z,100182.56
2023-04-13T22:25:04.268Z,100188.72
2023-04-13T22:27:31.520Z,100189.53
2023-04-13T22:29:58.576Z,100192.00
2023-04-13T22:32:28.598Z,100192.44
2023-04-13T22:34:56.786Z,100195.28
2023-04-13T22:37:23.922Z,100202.16
2023-04-13T22:39:51.041Z,100200.31
2023-04-13T22:42:20.348Z,100206.94
2023-04-13T22:44:47.393Z,100202.00
2023-04-13T22:47:14.461Z,100207.53
2023-04-13T22:49:41.628Z,100203.91
2023-04-13T22:52:08.778Z,100199.78
2023-04-13T22:54:35.884Z,100203.66
2023-04-13T22:57:05.591Z,100202.81
2023-04-13T22:59:32.785Z,100198.16
2023-04-13T23:02:01.568Z,100199.94
2023-04-13T23:04:28.950Z,100192.56
2023-04-13T23:06:56.127Z,100198.88
2023-04-13T23:09:23.238Z,100186.97
2023-04-13T23:11:50.492Z,100183.28
2023-04-13T23:14:24.502Z,100176.31
2023-04-13T23:16:51.713Z,100178.22
2023-04-13T23:19:19.497Z,100185.66
2023-04-13T23:21:47.052Z,100174.19
2023-04-13T23:24:14.126Z,100175.78
2023-04-13T23:26:41.362Z,100172.66
2023-04-13T23:29:08.484Z,100171.59
2023-04-13T23:31:35.886Z,100163.16
2023-04-13T23:34:02.942Z,100154.81
2023-04-13T23:36:30.977Z,100151.69
2023-04-13T23:38:58.217Z,100153.13
2023-04-13T23:41:25.388Z,100152.78
2023-04-13T23:43:53.387Z,100166.69
2023-04-13T23:46:22.399Z,100161.72
2023-04-13T23:48:49.593Z,100163.88
2023-04-13T23:51:16.680Z,100165.53
2023-04-13T23:53:46.297Z,100170.84
2023-04-13T23:56:13.380Z,100171.25
2023-04-13T23:58:40.554Z,100169.50
